Flight Track Log - Related Links

Times and Time Zones

All times are in EDT time to prevent confusion due to time zone crossing. See the UAL1071 flight status page for this flight to view local times or setup timezone preferences in your user account.

Time Position Orientation Groundspeed Altitude Reporting Facility
EDT Latitude Longitude Course Direction KTS MPH feet Rate Location/Type
Tue 09:40:02 AM 32.7500 -117.2333 12° North 163 188 1,600  Level Southern TRACON
Tue 09:41:02 AM 32.7500 -117.2833 270° West 194 223 4,700 2,850 Climbing Southern TRACON
Tue 09:42:00 AM 32.6985 -116.7339 19° North  Level FlightAware
Tue 09:42:02 AM 32.7167 -117.3167 220° Southwest 252 290 7,300  Level Southern TRACON
Tue 09:43:00 AM 32.8231 -116.6815 13° North  Level FlightAware
Tue 09:43:07 AM 32.6542 -117.2572 141° Southeast 268 308 10,000  Level Los Center
Tue 09:44:00 AM 32.9518 -116.6439 16° North  Level FlightAware
Tue 09:44:08 AM 32.6358 -117.1472 101° East 329 379 12,200  Level Los Center
Tue 09:45:00 AM 33.0781 -116.5972 12° North  Level FlightAware
Tue 09:45:09 AM 32.6142 -116.9964 100° East 378 435 15,600  Level Los Center
Tue 09:46:10 AM 32.6214 -116.8592 86° East 415 478 18,300 2,000 Climbing Los Center
Tue 09:47:12 AM 32.6900 -116.7492 53° Northeast 437 503 19,700 1,512 Climbing Los Center
Tue 09:48:13 AM 32.8100 -116.7069 16° North 445 512 21,400 1,770 Climbing Los Center
Tue 09:49:14 AM 32.9386 -116.6597 17° North 467 537 23,300 1,967 Climbing Los Center
Tue 09:50:15 AM 33.0656 -116.5864 26° Northeast 499 574 25,400 1,805 Climbing Los Center
Tue 09:51:17 AM 33.1892 -116.4917 33° Northeast 517 595 27,000 732 Climbing Los Center
Tue 09:52:18 AM 33.3150 -116.3972 32° Northeast 528 608 26,900 246 Descending Los Center
Tue 09:53:19 AM 33.4408 -116.3031 32° Northeast 530 610 27,500 1,122 Climbing Los Center
Tue 09:54:21 AM 33.5681 -116.2058 32° Northeast 536 617 29,200 1,268 Climbing Los Center
Tue 09:55:22 AM 33.6953 -116.1064 33° Northeast 543 625 30,100 836 Climbing Los Center
Tue 09:56:23 AM 33.8236 -116.0017 34° Northeast 553 636 30,900 439 Climbing Los Center
Tue 09:57:25 AM 33.9517 -115.8997 33° Northeast 552 635 31,000 49 Climbing Los Center
Tue 09:58:26 AM 34.1050 -115.7744 34° Northeast 555 639 31,000 -49 Level Los Center
Tue 09:59:27 AM 34.2222 -115.6492 41° Northeast 559 643 30,900  Descending Los Center
Tue 10:00:29 AM 34.3425 -115.5267 40° Northeast 565 650 31,000 49 Climbing Los Center
Tue 10:01:30 AM 34.4872 -115.4644 20° North 553 636 31,000  Level Los Center
Tue 10:02:32 AM 34.6331 -115.4075 18° North 552 635 31,000  Level Los Center
Tue 10:03:33 AM 34.7978 -115.3422 18° North 552 635 31,000  Level Los Center
Tue 10:04:35 AM 34.9411 -115.2883 17° North 550 633 31,000  Level Los Center
Tue 10:05:36 AM 35.0875 -115.2272 19° North 550 633 31,000  Level Los Center
Tue 10:06:38 AM 35.2308 -115.1719 17° North 544 626 31,000  Level Los Center
Tue 10:07:39 AM 35.3731 -115.1161 18° North 539 620 31,000 689 Level Los Center
Tue 10:08:40 AM 35.5164 -115.0581 18° North 541 623 32,400 1,561 Climbing Los Center
Tue 10:09:42 AM 35.6578 -115.0000 18° North 540 621 34,200 1,463 Climbing Los Center
Tue 10:10:43 AM 35.7978 -114.9425 18° North 535 616 35,400 1,200 Climbing Los Center
Tue 10:11:57 AM 35.9653 -114.8736 18° North 532 612 36,900 706 Climbing Los Center
Tue 10:12:59 AM 36.0919 -114.7214 44° Northeast 540 621 37,000 49 Climbing Los Center
Tue 10:14:00 AM 36.1875 -114.5808 50° Northeast 537 618 37,000  Level Los Center
Tue 10:15:02 AM 36.2844 -114.4392 50° Northeast 540 621 37,000  Level Los Center
Tue 10:16:03 AM 36.3808 -114.2978 50° Northeast 539 620 37,000  Level Los Center
Tue 10:17:05 AM 36.4758 -114.1544 50° Northeast 539 620 37,000  Level Los Center
Tue 10:18:07 AM 36.5833 -113.9969 50° Northeast 536 617 37,000  Level Los Center
Tue 10:19:08 AM 36.6786 -113.8533 50° Northeast 537 618 37,000  Level Los Center
Tue 10:20:10 AM 36.7736 -113.7111 50° Northeast 536 617 37,000  Level Los Center
Tue 10:21:11 AM 36.8706 -113.5672 50° Northeast 541 623 37,000  Level Los Center
Tue 10:22:13 AM 36.9642 -113.4231 51° Northeast 538 619 37,000  Level Los Center
Tue 10:23:15 AM 37.0783 -113.2489 51° Northeast 541 623 37,000  Level Los Center
Tue 10:24:16 AM 37.1733 -113.1033 51° Northeast 542 624 37,000  Level Los Center
Tue 10:25:18 AM 37.2681 -112.9569 51° Northeast 544 626 37,000  Level Los Center
Tue 10:26:20 AM 37.3622 -112.8119 51° Northeast 544 626 37,000  Level Los Center
Tue 10:27:21 AM 37.4564 -112.6664 51° Northeast 548 631 37,000  Level Los Center
Tue 10:28:23 AM 37.5692 -112.4911 51° Northeast 548 631 37,000  Level Los Center
Tue 10:29:33 AM 37.6836 -112.3136 51° Northeast 550 633 37,000  Level Salt Center
Tue 10:30:35 AM 37.7736 -112.1592 54° Northeast 549 632 37,000  Level Salt Center
Tue 10:31:36 AM 37.8628 -112.0047 54° Northeast 547 629 37,000  Level Salt Center
Tue 10:32:38 AM 37.9528 -111.8503 54° Northeast 547 629 37,000  Level Salt Center
Tue 10:33:39 AM 38.0411 -111.6947 54° Northeast 545 627 37,000  Level Salt Center
Tue 10:34:41 AM 38.1289 -111.5389 54° Northeast 545 627 37,000  Level Salt Center
Tue 10:35:42 AM 38.2175 -111.3850 54° Northeast 542 624 37,000  Level Salt Center
Tue 10:36:44 AM 38.3042 -111.2286 55° Northeast 542 624 37,000  Level Salt Center
Tue 10:37:45 AM 38.4092 -111.0419 54° Northeast 542 624 37,000  Level Salt Center
Tue 10:38:47 AM 38.4933 -110.8942 54° Northeast 541 623 37,000  Level Salt Center
Tue 10:39:48 AM 38.5756 -110.7433 55° Northeast 541 623 37,000  Level Salt Center
Tue 10:40:50 AM 38.6725 -110.5686 55° Northeast 540 621 37,000  Level Salt Center
Tue 10:41:51 AM 38.7550 -110.4186 55° Northeast 539 620 37,000  Level Salt Center
Tue 10:42:53 AM 38.8508 -110.2422 55° Northeast 539 620 37,000  Level Salt Center
Tue 10:43:54 AM 38.9333 -110.0922 55° Northeast 538 619 37,000  Level Salt Center
Tue 10:44:56 AM 39.0283 -109.9147 55° Northeast 539 620 37,000  Level Salt Center
Tue 10:45:58 AM 39.1094 -109.7642 55° Northeast 537 618 37,000  Level Salt Center
Tue 10:46:59 AM 39.1911 -109.6125 55° Northeast 538 619 37,000  Level Salt Center
Tue 10:48:01 AM 39.2850 -109.4339 56° Northeast 538 619 37,000  Level Salt Center
Tue 10:49:03 AM 39.3661 -109.2811 55° Northeast 539 620 37,000  Level Salt Center
Tue 10:50:04 AM 39.4608 -109.1006 56° Northeast 542 624 37,000  Level Salt Center
Tue 10:51:06 AM 39.5422 -108.9461 56° Northeast 543 625 37,000  Level Salt Center
Tue 10:52:08 AM 39.6356 -108.7675 56° Northeast 542 624 37,000  Level Salt Center
Tue 10:53:10 AM 39.7250 -108.5936 56° Northeast 548 631 37,000  Level Salt Center
Tue 10:54:11 AM 39.8056 -108.4375 56° Northeast 546 628 37,000  Level Salt Center
Tue 10:55:13 AM 39.8867 -108.2806 56° Northeast 546 628 37,000  Level Salt Center
Tue 10:56:15 AM 39.9808 -108.0967 56° Northeast 547 629 37,000  Level Salt Center
Tue 10:57:17 AM 40.0611 -107.9367 57° Northeast 549 632 37,000  Level Salt Center
Tue 10:58:45 AM 40.1825 -107.6608 60° Northeast 552 635 37,000  Level Denver Center
Tue 10:59:47 AM 40.2558 -107.4967 60° Northeast 547 629 37,000  Level Denver Center
Tue 11:00:49 AM 40.3272 -107.3325 60° Northeast 544 626 37,000  Level Denver Center
Tue 11:01:51 AM 40.4081 -107.1428 61° Northeast 535 616 37,000  Level Denver Center
Tue 11:02:53 AM 40.4775 -106.9811 61° Northeast 532 612 37,000  Level Denver Center
Tue 11:03:55 AM 40.5517 -106.8125 60° Northeast 529 609 37,000  Level Denver Center
Tue 11:04:58 AM 40.6236 -106.6425 61° Northeast 528 608 37,000  Level Denver Center
Tue 11:06:00 AM 40.7058 -106.4450 61° Northeast 525 604 37,000  Level Denver Center
Tue 11:07:02 AM 40.7753 -106.2783 61° Northeast 527 606 37,000  Level Denver Center
Tue 11:08:04 AM 40.8531 -106.0994 60° Northeast 536 617 37,000  Level Denver Center
Tue 11:09:06 AM 40.9264 -105.9261 61° Northeast 538 619 37,000  Level Denver Center
Tue 11:10:08 AM 41.0019 -105.7319 63° Northeast 544 626 37,000  Level Denver Center
Tue 11:11:10 AM 41.0717 -105.5653 61° Northeast 543 625 37,000  Level Denver Center
Tue 11:12:12 AM 41.1517 -105.3692 62° Northeast 545 627 37,000  Level Denver Center
Tue 11:13:14 AM 41.2197 -105.1981 62° Northeast 548 631 37,000  Level Denver Center
Tue 11:14:16 AM 41.3011 -104.9986 61° Northeast 551 634 37,000  Level Denver Center
Tue 11:15:18 AM 41.3694 -104.8261 62° Northeast 554 638 37,000  Level Denver Center
Tue 11:16:20 AM 41.4494 -104.6244 62° Northeast 554 638 37,000  Level Denver Center
Tue 11:17:22 AM 41.5167 -104.4547 62° Northeast 548 631 37,000  Level Denver Center
Tue 11:18:24 AM 41.5950 -104.2544 62° Northeast 548 631 37,000  Level Denver Center
Tue 11:19:26 AM 41.6619 -104.0839 62° Northeast 545 627 37,000  Level Denver Center
Tue 11:20:28 AM 41.7308 -103.8817 65° Northeast 540 621 37,000  Level Denver Center
Tue 11:21:30 AM 41.7983 -103.7119 62° Northeast 541 623 37,000  Level Denver Center
Tue 11:22:32 AM 41.8786 -103.5142 61° Northeast 542 624 37,000  Level Denver Center
Tue 11:23:34 AM 41.9167 -103.3283 75° East 548 631 37,000  Level Denver Center
Tue 11:24:37 AM 41.9464 -103.1097 80° East 539 620 37,000  Level Denver Center
Tue 11:25:39 AM 41.9725 -102.9214 79° East 539 620 37,000  Level Denver Center
Tue 11:26:41 AM 42.0028 -102.6989 80° East 544 626 37,000  Level Denver Center
Tue 11:27:43 AM 42.0286 -102.5069 80° East 547 629 37,000  Level Denver Center
Tue 11:28:45 AM 42.0572 -102.2833 80° East 545 627 37,000  Level Denver Center
Tue 11:29:47 AM 42.0856 -102.0683 80° East 551 634 37,000  Level Denver Center
Tue 11:30:49 AM 42.1106 -101.8717 80° East 555 639 37,000  Level Denver Center
Tue 11:31:51 AM 42.1392 -101.6433 80° East 553 636 37,000  Level Denver Center
Tue 11:32:53 AM 42.1647 -101.4472 80° East 552 635 37,000  Level Denver Center
Tue 11:33:55 AM 42.1917 -101.2200 81° East 550 633 37,000  Level Denver Center
Tue 11:34:57 AM 42.2158 -101.0228 81° East 554 638 37,000  Level Denver Center
Tue 11:35:59 AM 42.2394 -100.8292 81° East 548 631 37,000  Level Denver Center
Tue 11:37:01 AM 42.2656 -100.5997 81° East 551 634 37,000  Level Denver Center
Tue 11:38:03 AM 42.2881 -100.4064 81° East 547 629 37,000  Level Denver Center
Tue 11:39:05 AM 42.3142 -100.1789 81° East 547 629 37,000  Level Denver Center
Tue 11:40:13 AM 42.3386 -99.9461 82° East 546 628 37,000  Level Minneapolis Center
Tue 11:41:09 AM 42.3592 -99.7578 82° East 545 627 37,000  Level Denver Center
Tue 11:42:11 AM 42.3786 -99.5803 82° East 543 625 37,000  Level Denver Center
Tue 11:43:13 AM 42.4042 -99.3400 82° East 539 620 37,000  Level Denver Center
Tue 11:44:15 AM 42.4253 -99.1372 82° East 540 621 37,000  Level Denver Center
Tue 11:45:17 AM 42.4450 -98.9328 82° East 543 625 37,000  Level Denver Center
Tue 11:46:20 AM 42.4661 -98.7289 82° East 544 626 37,000  Level Denver Center
Tue 11:47:27 AM 42.4808 -98.4864 85° East 543 625 37,000  Level Minneapolis Center
Tue 11:48:29 AM 42.4872 -98.2808 88° East 544 626 37,000  Level Minneapolis Center
Tue 11:49:31 AM 42.4942 -98.0769 87° East 542 624 37,000  Level Minneapolis Center
Tue 11:50:33 AM 42.4992 -97.8697 88° East 547 629 37,000  Level Minneapolis Center
Tue 11:51:35 AM 42.5058 -97.6533 88° East 546 628 37,000  Level Minneapolis Center
Tue 11:52:37 AM 42.5114 -97.4464 88° East 548 631 37,000  Level Minneapolis Center
Tue 11:53:39 AM 42.5161 -97.2428 88° East 542 624 37,000  Level Minneapolis Center
Tue 11:54:41 AM 42.5208 -97.0389 88° East 541 623 37,000  Level Minneapolis Center
Tue 11:55:43 AM 42.5256 -96.8339 88° East 542 624 37,000  Level Minneapolis Center
Tue 11:56:45 AM 42.5300 -96.6272 88° East 546 628 37,000  Level Minneapolis Center
Tue 11:57:47 AM 42.5339 -96.3797 89° East 547 629 37,000  Level Minneapolis Center
Tue 11:58:48 AM 42.5372 -96.1731 89° East 547 629 37,000  Level Minneapolis Center
Tue 11:59:50 AM 42.5400 -95.9669 89° East 545 627 37,000  Level Minneapolis Center
Tue 12:00:52 PM 42.5431 -95.7600 89° East 548 631 37,000  Level Minneapolis Center
Tue 12:01:54 PM 42.5447 -95.5503 89° East 552 635 37,000  Level Minneapolis Center
Tue 12:02:56 PM 42.5469 -95.3442 89° East 547 629 37,000  Level Minneapolis Center
Tue 12:03:58 PM 42.5481 -95.1375 90° East 546 628 37,000  Level Minneapolis Center
Tue 12:05:00 PM 42.5486 -94.8889 90° East 548 631 37,000  Level Minneapolis Center
Tue 12:06:02 PM 42.5472 -94.6822 90° East 547 629 37,000  Level Minneapolis Center
Tue 12:07:04 PM 42.5481 -94.4731 90° East 545 627 37,000  Level Minneapolis Center
Tue 12:08:06 PM 42.5483 -94.2681 90° East 547 629 37,000  Level Minneapolis Center
Tue 12:09:08 PM 42.5486 -94.0642 90° East 545 627 37,000  Level Minneapolis Center
Tue 12:10:10 PM 42.5469 -93.8606 91° East 546 628 37,000  Level Minneapolis Center
Tue 12:11:12 PM 42.5467 -93.6561 90° East 545 627 37,000  Level Minneapolis Center
Tue 12:12:14 PM 42.5439 -93.4111 91° East 547 629 37,000  Level Minneapolis Center
Tue 12:13:16 PM 42.5417 -93.2036 91° East 551 634 37,000  Level Minneapolis Center
Tue 12:14:18 PM 42.5383 -92.9972 91° East 553 636 37,000  Level Minneapolis Center
Tue 12:15:20 PM 42.5367 -92.7892 91° East 556 640 37,000  Level Minneapolis Center
Tue 12:16:22 PM 42.5333 -92.5811 91° East 557 641 37,000 -48 Level Minneapolis Center
Tue 12:17:24 PM 42.5297 -92.3275 91° East 564 649 36,900 -1,210 Descending Minneapolis Center
Tue 12:18:26 PM 42.5253 -92.1231 92° East 559 643 34,500 -1,887 Descending Minneapolis Center
Tue 12:19:28 PM 42.5236 -91.9311 91° East 533 613 33,000 -968 Descending Minneapolis Center
Tue 12:20:30 PM 42.5258 -91.7431 89° East 515 593 32,500 -774 Descending Minneapolis Center
Tue 12:21:32 PM 42.5264 -91.5125 90° East 520 598 31,400 -1,016 Descending Minneapolis Center
Tue 12:22:34 PM 42.5264 -91.3156 90° East 529 609 30,400 -898 Descending Minneapolis Center
Tue 12:23:39 PM 42.5264 -91.1189 90° East 530 610 29,500 -992 Descending Chicago Center
Tue 12:24:41 PM 42.5267 -90.8764 90° East 542 624 28,300 -1,065 Descending Chicago Center
Tue 12:25:43 PM 42.5253 -90.6761 90° East 539 620 27,300 -976 Descending Chicago Center
Tue 12:26:44 PM 42.5244 -90.4781 90° East 533 613 26,300 -976 Descending Chicago Center
Tue 12:27:46 PM 42.5244 -90.2844 90° East 521 600 25,300 -968 Descending Chicago Center
Tue 12:28:48 PM 42.5239 -90.0961 90° East 509 586 24,300 -629 Descending Chicago Center
Tue 12:29:50 PM 42.5211 -89.9094 91° East 503 579 24,000 -194 Descending Chicago Center
Tue 12:30:52 PM 42.5181 -89.6867 91° East 499 574 23,900 -774 Descending Chicago Center
Tue 12:31:54 PM 42.5150 -89.5036 91° East 492 566 22,400 -1,839 Descending Chicago Center
Tue 12:32:56 PM 42.5133 -89.3314 91° East 467 537 20,100 -2,274 Descending Chicago Center
Tue 12:33:58 PM 42.5089 -89.1544 92° East 439 505 17,700 -2,419 Descending Chicago Center
Tue 12:35:00 PM 42.5083 -88.9942 90° East 428 493 15,100 -2,516 Descending Chicago Center
Tue 12:36:02 PM 42.4808 -88.8447 104° East 410 472 12,500 -1,984 Descending Chicago Center
Tue 12:37:04 PM 42.4406 -88.7119 112° Southeast 387 445 11,000 -919 Descending Chicago Center
Tue 12:38:06 PM 42.4008 -88.5789 112° Southeast 317 365 10,600 -871 Descending Chicago Center
Tue 12:39:08 PM 42.3681 -88.4739 113° Southeast 308 354 9,200 -1,355 Descending Chicago Center
Tue 12:40:10 PM 42.3356 -88.3744 114° Southeast 296 341 7,800 -1,403 Descending Chicago Center
Tue 12:41:12 PM 42.2622 -88.3575 170° South 277 319 6,300 -1,355 Descending Chicago Center
Tue 12:42:14 PM 42.1897 -88.3583 180° South 268 308 5,000 -1,104 Descending Chicago Center
Tue 12:43:17 PM 42.1236 -88.3914 200° South 261 300 4,000 -484 Descending Chicago Center
Tue 12:44:18 PM 42.0433 -88.3961 183° South 251 289 4,000  Level Chicago Center
Tue 12:45:20 PM 42.0069 -88.3389 131° Southeast 239 275 4,000 48 Level Chicago Center
Tue 12:46:22 PM 42.0019 -88.2678 95° East 213 245 4,100 48 Climbing Chicago Center
Tue 12:47:24 PM 42.0031 -88.2006 89° East 193 222 4,100 -242 Level Chicago Center
Tue 12:48:26 PM 42.0019 -88.1306 91° East 186 214 3,600 -735 Descending Chicago Center
Tue 12:49:02 PM 42.0000 -88.0833 93° East 184 212 2,900 -990 Descending Chicago TRACON
Tue 12:50:03 PM 42.0000 -88.0167 90° East 168 193 2,000 -843 Descending Chicago TRACON
Tue 12:51:03 PM 42.0000 -87.9667 90° East 130 150 1,200 -800 Descending Chicago TRACON

Login

Don't have an account? Register now (free) for customized features, flight alerts, and more!